Time;durP1;ratioP1;P1;durP2;ratioP2;P2;SDS_P1;SDS_P2;PMS_P1;PMS_P2;Temp;Humidity;BMP_temperature;BMP_pressure;BME280_temperature;BME280_humidity;BME280_pressure;Samples;Min_cycle;Max_cycle;Signal;HPM_P1;HPM_P2
2023/12/06 00:00:41;;;;;;;1.37;1.00;;;6.10;99.90;;;;;;5102712;28;20175;-70
2023/12/06 00:03:07;;;;;;;0.80;0.77;;;6.10;99.90;;;;;;5095807;28;20171;-69
2023/12/06 00:05:32;;;;;;;1.37;1.10;;;6.20;99.90;;;;;;5095694;28;20413;-69
2023/12/06 00:07:58;;;;;;;1.03;0.80;;;6.00;99.90;;;;;;5098150;28;20190;-68
2023/12/06 00:10:23;;;;;;;1.00;0.80;;;6.00;99.90;;;;;;5106108;28;20162;-69
2023/12/06 00:12:49;;;;;;;0.87;0.80;;;6.00;99.90;;;;;;5114931;28;20194;-68
2023/12/06 00:15:15;;;;;;;1.20;0.90;;;5.80;99.90;;;;;;5115879;28;20158;-68
2023/12/06 00:17:41;;;;;;;0.90;0.80;;;5.90;99.90;;;;;;5115877;28;20575;-69
2023/12/06 00:20:07;;;;;;;0.90;0.80;;;6.10;99.90;;;;;;5107677;28;20199;-69
2023/12/06 00:22:32;;;;;;;0.80;0.70;;;6.20;99.90;;;;;;5077152;28;20532;-69
2023/12/06 00:24:58;;;;;;;0.87;0.70;;;6.20;99.90;;;;;;5095324;28;20410;-68
2023/12/06 00:27:24;;;;;;;1.33;0.87;;;6.30;99.90;;;;;;5095299;28;20588;-69
2023/12/06 00:29:49;;;;;;;0.80;0.73;;;6.30;99.90;;;;;;5100244;28;20198;-69
2023/12/06 00:32:15;;;;;;;1.10;1.00;;;6.30;99.90;;;;;;5115588;28;20189;-69
2023/12/06 00:34:40;;;;;;;1.47;1.10;;;6.20;99.90;;;;;;5115483;28;20693;-68
2023/12/06 00:37:06;;;;;;;0.87;0.63;;;6.20;99.90;;;;;;5115412;28;20170;-68
2023/12/06 00:39:31;;;;;;;1.00;0.80;;;6.30;99.90;;;;;;5110483;28;20186;-69
2023/12/06 00:41:57;;;;;;;1.30;0.60;;;6.20;99.90;;;;;;5115942;28;20169;-67
2023/12/06 00:44:22;;;;;;;0.93;0.70;;;6.20;99.90;;;;;;5115401;28;20169;-68
2023/12/06 00:46:49;;;;;;;1.00;0.70;;;6.10;99.90;;;;;;5115283;28;20203;-69
2023/12/06 00:49:17;;;;;;;1.07;0.80;;;6.10;99.90;;;;;;5114987;28;20198;-69
2023/12/06 00:51:43;;;;;;;1.00;0.80;;;6.10;99.90;;;;;;5095016;28;20447;-69
2023/12/06 00:54:08;;;;;;;0.90;0.67;;;6.10;99.90;;;;;;5094661;28;20407;-70
2023/12/06 00:56:34;;;;;;;1.17;0.77;;;6.00;99.90;;;;;;5094729;28;20411;-69
2023/12/06 00:58:59;;;;;;;1.00;0.80;;;6.10;99.90;;;;;;5076409;28;20185;-68
2023/12/06 01:01:25;;;;;;;1.10;0.90;;;6.10;99.90;;;;;;5113127;28;20184;-68
2023/12/06 01:03:50;;;;;;;1.00;0.90;;;6.20;99.90;;;;;;5114967;28;20688;-69
2023/12/06 01:06:16;;;;;;;1.40;0.80;;;6.20;99.90;;;;;;5114973;28;20170;-68
2023/12/06 01:08:41;;;;;;;0.90;0.70;;;6.20;99.90;;;;;;5114764;28;20263;-69
2023/12/06 01:11:07;;;;;;;0.70;0.50;;;6.10;99.90;;;;;;5099331;28;20660;-69
2023/12/06 01:13:33;;;;;;;0.70;0.60;;;6.00;99.90;;;;;;5094434;28;20238;-68
2023/12/06 01:15:58;;;;;;;1.07;0.60;;;6.00;99.90;;;;;;5094939;28;20418;-69
2023/12/06 01:18:24;;;;;;;0.90;0.60;;;6.10;99.90;;;;;;5094285;28;20288;-69
2023/12/06 01:20:49;;;;;;;1.40;0.70;;;6.20;99.90;;;;;;5094569;28;20180;-69
2023/12/06 01:23:15;;;;;;;0.70;0.60;;;6.10;99.90;;;;;;5094396;28;20161;-69
2023/12/06 01:25:41;;;;;;;0.70;0.67;;;6.10;99.90;;;;;;5094554;28;20159;-69
2023/12/06 01:28:06;;;;;;;0.90;0.57;;;6.10;99.90;;;;;;5094135;28;20169;-69
2023/12/06 01:30:32;;;;;;;0.80;0.70;;;6.10;99.90;;;;;;5094063;28;20167;-69
2023/12/06 01:32:57;;;;;;;0.93;0.70;;;6.10;99.90;;;;;;5094064;28;20191;-70
2023/12/06 01:35:23;;;;;;;0.80;0.70;;;6.20;99.90;;;;;;5094249;28;20183;-69
2023/12/06 01:37:48;;;;;;;1.57;0.60;;;6.30;99.90;;;;;;5094115;28;20165;-69
2023/12/06 01:40:14;;;;;;;0.70;0.60;;;6.10;99.90;;;;;;5094237;28;20240;-69
2023/12/06 01:42:39;;;;;;;1.30;0.70;;;6.00;99.90;;;;;;5093862;28;20163;-68
2023/12/06 01:45:05;;;;;;;1.53;0.67;;;6.00;99.90;;;;;;5093825;28;20166;-68
2023/12/06 01:47:33;;;;;;;0.87;0.60;;;6.10;99.90;;;;;;5093772;28;20707;-69
2023/12/06 01:50:01;;;;;;;1.03;0.67;;;6.20;99.90;;;;;;5094081;28;20554;-71
2023/12/06 01:52:27;;;;;;;0.70;0.50;;;6.30;99.90;;;;;;5093583;28;20434;-69
2023/12/06 01:54:58;;;;;;;0.70;0.50;;;6.20;99.90;;;;;;5093644;28;20495;-68
2023/12/06 01:57:24;;;;;;;0.90;0.57;;;6.20;99.90;;;;;;5068708;28;20439;-69
2023/12/06 01:59:49;;;;;;;0.80;0.60;;;6.20;99.90;;;;;;5077036;28;20890;-68
2023/12/06 02:02:15;;;;;;;0.70;0.60;;;6.20;99.90;;;;;;5093516;28;20482;-68
2023/12/06 02:04:41;;;;;;;0.70;0.60;;;6.20;99.90;;;;;;5093382;28;20642;-70
2023/12/06 02:07:06;;;;;;;1.50;0.60;;;6.30;99.90;;;;;;5075666;28;20170;-69
2023/12/06 02:09:32;;;;;;;0.80;0.60;;;6.30;99.90;;;;;;5092868;28;20195;-69
2023/12/06 02:11:57;;;;;;;0.80;0.60;;;6.30;99.90;;;;;;5093255;28;20555;-68
2023/12/06 02:14:23;;;;;;;0.80;0.60;;;6.20;99.90;;;;;;5093847;28;20166;-69
2023/12/06 02:16:49;;;;;;;0.90;0.80;;;6.20;99.90;;;;;;5093343;28;20171;-68
2023/12/06 02:19:25;;;;;;;0.70;0.50;;;6.30;99.90;;;;;;5082492;28;20207;-68
2023/12/06 02:21:50;;;;;;;0.70;0.60;;;6.30;99.90;;;;;;5053145;28;20159;-69
2023/12/06 02:24:18;;;;;;;0.63;0.50;;;6.20;99.90;;;;;;5052901;28;20916;-69
2023/12/06 02:26:44;;;;;;;0.80;0.60;;;6.10;99.90;;;;;;5052984;28;20676;-68
2023/12/06 02:29:09;;;;;;;0.70;0.50;;;6.20;99.90;;;;;;5053065;28;20451;-68
2023/12/06 02:31:35;;;;;;;0.70;0.50;;;6.10;99.90;;;;;;5088829;28;20198;-70
2023/12/06 02:34:08;;;;;;;0.80;0.50;;;6.20;99.90;;;;;;5092773;28;20215;-69
2023/12/06 02:36:35;;;;;;;0.90;0.70;;;6.20;99.90;;;;;;5093082;28;20155;-69
2023/12/06 02:39:01;;;;;;;0.70;0.50;;;6.20;99.90;;;;;;5093063;28;20428;-68
2023/12/06 02:41:28;;;;;;;0.70;0.50;;;6.20;99.90;;;;;;5082843;28;20925;-69
2023/12/06 02:43:53;;;;;;;0.70;0.53;;;6.20;99.90;;;;;;5093085;28;20784;-69
2023/12/06 02:46:22;;;;;;;1.00;0.60;;;6.50;99.90;;;;;;5093262;28;20480;-68
2023/12/06 02:48:48;;;;;;;0.70;0.50;;;6.30;99.90;;;;;;5091660;28;20191;-69
2023/12/06 02:51:13;;;;;;;1.77;0.90;;;6.30;99.90;;;;;;5078305;28;20927;-68
2023/12/06 02:53:39;;;;;;;0.87;0.50;;;6.40;99.90;;;;;;5072757;28;20165;-70
2023/12/06 02:56:05;;;;;;;0.70;0.50;;;6.40;99.90;;;;;;5073045;28;20281;-69
2023/12/06 02:58:30;;;;;;;0.80;0.50;;;6.40;99.90;;;;;;5072911;28;20180;-69
2023/12/06 03:00:56;;;;;;;1.33;0.63;;;6.30;99.90;;;;;;5084890;28;20661;-69
2023/12/06 03:03:21;;;;;;;1.07;0.73;;;6.20;99.90;;;;;;5092790;28;20168;-69
2023/12/06 03:05:47;;;;;;;0.70;0.57;;;6.10;99.90;;;;;;5092878;28;20699;-68
2023/12/06 03:08:14;;;;;;;0.80;0.70;;;6.20;99.90;;;;;;5093263;28;20242;-69
2023/12/06 03:10:40;;;;;;;0.70;0.60;;;6.30;99.90;;;;;;5083125;28;20298;-68
2023/12/06 03:13:06;;;;;;;0.80;0.60;;;6.20;99.90;;;;;;5072748;28;20470;-69
2023/12/06 03:15:32;;;;;;;1.00;0.60;;;6.30;99.90;;;;;;5071246;28;20404;-68
2023/12/06 03:17:57;;;;;;;0.70;0.60;;;6.10;99.90;;;;;;5071274;28;20178;-69
2023/12/06 03:20:23;;;;;;;0.70;0.50;;;6.20;99.90;;;;;;5092917;28;20168;-69
2023/12/06 03:22:48;;;;;;;1.10;0.80;;;6.30;99.90;;;;;;5092636;28;20198;-69
2023/12/06 03:25:14;;;;;;;1.10;0.70;;;6.20;99.90;;;;;;5093080;28;20179;-69
2023/12/06 03:27:40;;;;;;;0.80;0.50;;;6.10;99.90;;;;;;5093128;28;20216;-68
2023/12/06 03:30:06;;;;;;;0.80;0.60;;;6.10;99.90;;;;;;5092365;28;20185;-69
2023/12/06 03:32:31;;;;;;;0.70;0.50;;;6.10;99.90;;;;;;5074309;28;20221;-68
2023/12/06 03:34:57;;;;;;;1.03;0.60;;;6.20;99.90;;;;;;5074423;28;20451;-69
2023/12/06 03:37:22;;;;;;;0.93;0.60;;;6.30;99.90;;;;;;5075087;28;20175;-69
2023/12/06 03:39:48;;;;;;;0.83;0.60;;;6.30;99.90;;;;;;5092344;28;20183;-68
2023/12/06 03:42:13;;;;;;;0.80;0.60;;;6.20;99.90;;;;;;5092435;28;20174;-69
2023/12/06 03:44:39;;;;;;;1.00;0.60;;;6.30;99.90;;;;;;5092365;28;20178;-68
2023/12/06 03:47:05;;;;;;;0.87;0.60;;;6.30;99.90;;;;;;5094281;28;20164;-69
2023/12/06 03:49:31;;;;;;;0.80;0.60;;;6.20;99.90;;;;;;5096135;28;20187;-69
2023/12/06 03:51:56;;;;;;;1.10;0.87;;;6.30;99.90;;;;;;5095767;28;20450;-69
2023/12/06 03:56:50;;;;;;;0.70;0.50;;;6.20;99.90;;;;;;5034503;28;20209;-68
2023/12/06 03:59:16;;;;;;;0.80;0.50;;;6.30;99.90;;;;;;5035668;28;20461;-68
2023/12/06 04:01:44;;;;;;;0.80;0.73;;;6.30;99.90;;;;;;5035923;28;20169;-68
2023/12/06 04:04:09;;;;;;;1.10;0.60;;;6.40;99.90;;;;;;5035416;28;20182;-68
2023/12/06 04:06:35;;;;;;;0.97;0.73;;;6.40;99.90;;;;;;5034509;28;20439;-68
2023/12/06 04:09:00;;;;;;;0.80;0.60;;;6.40;99.90;;;;;;5035514;28;20698;-68
2023/12/06 04:11:27;;;;;;;0.80;0.50;;;6.50;99.90;;;;;;5035631;28;20718;-68
2023/12/06 04:13:52;;;;;;;0.70;0.50;;;6.30;99.90;;;;;;5035395;28;20260;-68
2023/12/06 04:16:18;;;;;;;0.70;0.50;;;6.40;99.90;;;;;;5035292;28;20519;-68
2023/12/06 04:18:43;;;;;;;0.90;0.57;;;6.60;99.90;;;;;;5035294;28;20199;-68
2023/12/06 04:21:09;;;;;;;0.77;0.50;;;6.60;99.90;;;;;;5036340;28;20192;-68
2023/12/06 04:23:34;;;;;;;0.70;0.50;;;6.50;99.90;;;;;;5035343;28;20177;-68
2023/12/06 04:26:00;;;;;;;0.90;0.50;;;6.60;99.90;;;;;;5035008;28;20250;-68
2023/12/06 04:28:25;;;;;;;0.90;0.50;;;6.70;99.90;;;;;;5033752;28;20173;-68
2023/12/06 04:30:51;;;;;;;0.70;0.50;;;6.50;99.90;;;;;;5034896;28;20182;-68
2023/12/06 04:33:16;;;;;;;0.70;0.50;;;6.50;99.90;;;;;;5035024;28;20177;-68
2023/12/06 04:35:42;;;;;;;0.80;0.47;;;6.60;99.90;;;;;;5034504;28;20201;-68
2023/12/06 04:38:08;;;;;;;0.70;0.50;;;6.40;99.90;;;;;;5034980;28;20173;-68
2023/12/06 04:40:33;;;;;;;0.70;0.40;;;6.50;99.90;;;;;;5034833;28;20203;-68
2023/12/06 04:42:59;;;;;;;0.97;0.60;;;6.60;99.90;;;;;;5034838;28;20164;-68
2023/12/06 04:45:24;;;;;;;0.70;0.40;;;6.60;99.90;;;;;;5034557;28;20189;-68
2023/12/06 04:47:50;;;;;;;0.83;0.50;;;6.40;99.90;;;;;;5035056;28;20170;-68
2023/12/06 04:50:16;;;;;;;0.80;0.53;;;6.50;99.90;;;;;;5034735;28;20228;-68
2023/12/06 04:52:41;;;;;;;0.70;0.40;;;6.60;99.90;;;;;;5034592;28;20441;-68
2023/12/06 04:55:07;;;;;;;1.30;0.50;;;6.60;99.90;;;;;;5035137;28;20208;-68
2023/12/06 04:57:33;;;;;;;0.80;0.60;;;6.40;99.90;;;;;;5034453;28;20172;-68
2023/12/06 04:59:59;;;;;;;0.70;0.50;;;6.70;99.90;;;;;;5034565;28;20778;-68
2023/12/06 05:02:24;;;;;;;0.70;0.53;;;6.70;99.90;;;;;;5034489;28;20284;-68
2023/12/06 05:04:50;;;;;;;0.70;0.50;;;6.60;99.90;;;;;;5037248;28;20200;-68
2023/12/06 05:07:15;;;;;;;0.80;0.60;;;6.50;99.90;;;;;;5054794;28;20226;-68
2023/12/06 05:09:41;;;;;;;0.70;0.53;;;6.50;99.90;;;;;;5054546;28;20212;-68
2023/12/06 05:12:07;;;;;;;0.60;0.40;;;6.70;99.90;;;;;;5054173;28;20224;-68
2023/12/06 05:14:33;;;;;;;0.73;0.50;;;6.60;99.90;;;;;;5053812;28;20180;-68
2023/12/06 05:16:58;;;;;;;0.70;0.50;;;6.70;99.90;;;;;;5034477;28;20762;-68
2023/12/06 05:19:24;;;;;;;0.90;0.53;;;6.60;99.90;;;;;;5034152;28;20592;-68
2023/12/06 05:21:49;;;;;;;1.03;0.60;;;6.50;99.90;;;;;;5034166;28;20602;-68
2023/12/06 05:24:15;;;;;;;0.70;0.50;;;6.40;99.90;;;;;;5034090;28;20649;-68
2023/12/06 05:26:40;;;;;;;1.00;0.60;;;6.50;99.90;;;;;;5051758;28;20167;-68
2023/12/06 05:29:06;;;;;;;0.80;0.40;;;6.60;99.90;;;;;;5054177;28;20227;-68
2023/12/06 05:31:31;;;;;;;0.80;0.50;;;6.60;99.90;;;;;;5032113;28;20245;-68
2023/12/06 05:33:58;;;;;;;4.80;2.00;;;6.80;99.90;;;;;;5024344;28;20185;-69
2023/12/06 05:36:23;;;;;;;22.07;12.70;;;6.70;99.90;;;;;;5023717;28;20556;-68
2023/12/06 05:38:49;;;;;;;11.10;5.53;;;6.90;99.90;;;;;;5033795;28;20412;-69
2023/12/06 05:41:14;;;;;;;6.90;4.33;;;6.80;99.90;;;;;;5033630;28;20177;-68
2023/12/06 05:43:40;;;;;;;8.33;4.87;;;6.60;99.90;;;;;;5033957;28;20298;-67
2023/12/06 05:46:06;;;;;;;11.50;9.90;;;6.80;99.90;;;;;;5046324;28;20214;-66
2023/12/06 05:48:32;;;;;;;10.17;8.60;;;6.90;99.90;;;;;;5053882;28;20412;-66
2023/12/06 05:50:57;;;;;;;7.23;6.10;;;6.80;99.90;;;;;;5053714;28;20168;-66
2023/12/06 05:53:23;;;;;;;3.60;2.83;;;6.80;99.90;;;;;;5053194;28;20654;-66
2023/12/06 05:55:48;;;;;;;1.33;1.20;;;6.70;99.90;;;;;;5042874;28;20687;-67
2023/12/06 05:58:14;;;;;;;1.50;1.13;;;6.70;99.90;;;;;;5034032;28;20178;-66
2023/12/06 06:00:40;;;;;;;1.90;1.53;;;6.80;99.90;;;;;;5033165;28;20197;-67
2023/12/06 06:03:06;;;;;;;0.80;0.77;;;6.90;99.90;;;;;;5033712;28;20189;-68
2023/12/06 06:05:31;;;;;;;0.90;0.77;;;7.00;99.90;;;;;;5038316;28;20440;-68
2023/12/06 06:07:59;;;;;;;0.97;0.70;;;7.00;99.90;;;;;;5033175;28;20173;-67
2023/12/06 06:10:25;;;;;;;0.80;0.57;;;7.00;99.90;;;;;;5032941;28;20255;-68
2023/12/06 06:12:50;;;;;;;4.87;4.37;;;7.00;99.90;;;;;;5036030;28;21093;-67
2023/12/06 06:15:16;;;;;;;2.10;1.80;;;6.90;99.90;;;;;;5038548;28;20185;-68
2023/12/06 06:17:42;;;;;;;3.70;1.53;;;6.70;99.90;;;;;;5053028;28;20168;-67
2023/12/06 06:20:09;;;;;;;1.23;0.90;;;6.60;99.90;;;;;;5053022;28;20165;-67
2023/12/06 06:22:35;;;;;;;1.70;1.13;;;6.50;99.90;;;;;;5053190;28;20449;-67
2023/12/06 06:25:01;;;;;;;1.40;1.30;;;6.60;99.90;;;;;;5049661;28;20468;-67
2023/12/06 06:27:26;;;;;;;2.20;2.00;;;6.50;99.90;;;;;;5033259;28;20169;-67
2023/12/06 06:29:52;;;;;;;1.07;0.97;;;6.50;99.90;;;;;;5033345;28;20247;-67
2023/12/06 06:32:17;;;;;;;0.93;0.70;;;6.60;99.90;;;;;;5032937;28;20236;-67
2023/12/06 06:34:43;;;;;;;1.10;0.93;;;6.60;99.90;;;;;;5049728;28;20189;-68
2023/12/06 06:37:11;;;;;;;0.80;0.67;;;6.70;99.90;;;;;;5033013;28;20175;-68
2023/12/06 06:39:38;;;;;;;1.30;0.70;;;6.60;99.90;;;;;;5032727;28;20257;-68
2023/12/06 06:42:03;;;;;;;0.90;0.70;;;6.70;99.90;;;;;;5033179;28;20938;-67
2023/12/06 06:44:30;;;;;;;1.00;0.73;;;6.60;99.90;;;;;;5032776;28;20451;-68
2023/12/06 06:46:55;;;;;;;4.80;3.57;;;6.50;99.90;;;;;;5051550;28;20450;-67
2023/12/06 06:49:21;;;;;;;1.53;0.70;;;6.50;99.90;;;;;;5052653;28;20403;-67
2023/12/06 06:51:47;;;;;;;8.03;7.37;;;6.50;99.90;;;;;;5052702;28;20224;-67
2023/12/06 06:54:12;;;;;;;1.30;1.20;;;6.50;99.90;;;;;;5053735;28;20559;-68
2023/12/06 06:56:38;;;;;;;1.50;1.40;;;6.50;99.90;;;;;;5036204;28;20210;-67
2023/12/06 06:59:03;;;;;;;1.03;0.93;;;6.60;99.90;;;;;;5032945;28;20652;-67
2023/12/06 07:01:29;;;;;;;0.97;0.80;;;6.60;99.90;;;;;;5032700;28;20314;-66
2023/12/06 07:03:55;;;;;;;1.10;0.70;;;6.30;99.90;;;;;;5033256;28;20189;-68
2023/12/06 07:06:20;;;;;;;1.40;1.30;;;6.60;99.90;;;;;;5045883;28;20192;-67
2023/12/06 07:08:46;;;;;;;1.30;0.90;;;6.50;99.90;;;;;;5052474;28;20201;-67
2023/12/06 07:11:12;;;;;;;1.10;0.90;;;6.60;99.90;;;;;;5052543;28;20412;-67
2023/12/06 07:13:38;;;;;;;1.40;0.67;;;6.70;99.90;;;;;;5052373;28;20772;-68
2023/12/06 07:16:04;;;;;;;1.00;0.80;;;6.70;99.90;;;;;;5041137;28;20198;-68
2023/12/06 07:18:31;;;;;;;1.20;0.90;;;6.60;99.90;;;;;;5032468;28;20167;-68
2023/12/06 07:20:58;;;;;;;0.90;0.80;;;6.60;99.90;;;;;;5033802;28;20467;-68
2023/12/06 07:23:23;;;;;;;0.90;0.60;;;6.70;99.90;;;;;;5036201;28;20479;-68
2023/12/06 07:25:49;;;;;;;3.83;1.50;;;6.80;99.90;;;;;;5044993;28;20808;-68
2023/12/06 07:28:15;;;;;;;1.87;1.70;;;6.80;99.90;;;;;;5054977;28;20173;-68
2023/12/06 07:30:40;;;;;;;1.30;0.97;;;6.70;99.90;;;;;;5056244;28;20499;-67
2023/12/06 07:33:07;;;;;;;1.63;1.23;;;6.80;99.90;;;;;;5056101;28;20285;-68
2023/12/06 07:35:34;;;;;;;0.90;0.80;;;6.80;99.90;;;;;;5049534;28;20682;-69
2023/12/06 07:37:59;;;;;;;1.00;0.90;;;7.00;99.90;;;;;;5035841;28;20399;-67
2023/12/06 07:40:25;;;;;;;0.80;0.70;;;7.10;99.90;;;;;;5035722;28;20404;-69
2023/12/06 07:42:51;;;;;;;0.90;0.70;;;7.10;99.90;;;;;;5035914;28;20173;-70
2023/12/06 07:45:16;;;;;;;1.73;0.70;;;7.00;99.90;;;;;;5039992;28;20201;-70
2023/12/06 07:47:42;;;;;;;1.20;0.80;;;7.10;99.90;;;;;;5055945;28;20205;-70
2023/12/06 07:50:09;;;;;;;1.10;0.93;;;7.10;99.90;;;;;;5055711;28;20649;-69
2023/12/06 07:52:35;;;;;;;1.37;0.90;;;7.10;99.90;;;;;;5055801;28;20570;-70
2023/12/06 07:55:00;;;;;;;0.80;0.70;;;7.10;99.90;;;;;;5053803;28;20979;-70
2023/12/06 07:57:28;;;;;;;1.20;0.83;;;7.20;99.90;;;;;;5036022;28;20473;-70
2023/12/06 07:59:55;;;;;;;2.23;0.73;;;7.30;99.90;;;;;;5035850;28;20161;-69
2023/12/06 08:02:21;;;;;;;2.20;1.33;;;7.10;99.90;;;;;;5035771;28;20781;-70
2023/12/06 08:04:46;;;;;;;2.03;1.37;;;7.10;99.90;;;;;;5035290;28;20437;-70
2023/12/06 08:07:12;;;;;;;1.97;1.20;;;7.10;99.90;;;;;;5055082;28;20185;-70
2023/12/06 08:09:39;;;;;;;2.10;1.80;;;7.10;99.90;;;;;;5055211;28;20169;-70
2023/12/06 08:12:06;;;;;;;2.13;1.90;;;7.10;99.90;;;;;;5038024;28;20215;-70
2023/12/06 08:14:31;;;;;;;1.43;1.10;;;7.00;99.90;;;;;;5035169;28;20914;-70
2023/12/06 08:16:57;;;;;;;2.13;1.50;;;7.00;99.90;;;;;;5052713;28;20431;-70
2023/12/06 08:19:22;;;;;;;2.27;2.00;;;6.90;99.90;;;;;;5052158;28;20277;-70
2023/12/06 08:21:49;;;;;;;2.43;1.20;;;6.90;99.90;;;;;;5055154;28;20545;-70
2023/12/06 08:24:15;;;;;;;2.47;1.40;;;6.90;99.90;;;;;;5055386;28;20215;-70
2023/12/06 08:26:42;;;;;;;2.43;1.83;;;6.80;99.90;;;;;;5046811;28;20501;-71
2023/12/06 08:29:08;;;;;;;1.97;1.77;;;6.70;99.90;;;;;;5055024;28;20908;-70
2023/12/06 08:31:33;;;;;;;3.93;1.60;;;6.80;99.90;;;;;;5053921;28;20457;-70
2023/12/06 08:33:59;;;;;;;3.13;2.13;;;6.90;99.90;;;;;;5054837;28;20333;-70
2023/12/06 08:36:25;;;;;;;3.20;2.73;;;7.00;99.90;;;;;;5041891;28;20197;-70
2023/12/06 08:38:50;;;;;;;4.10;2.63;;;6.80;99.90;;;;;;5035159;28;20162;-69
2023/12/06 08:41:16;;;;;;;2.30;2.10;;;6.70;99.90;;;;;;5035093;28;20802;-69
2023/12/06 08:43:43;;;;;;;3.13;2.57;;;6.70;99.90;;;;;;5034702;28;20169;-70
2023/12/06 08:46:09;;;;;;;3.50;2.97;;;6.80;99.90;;;;;;5045124;28;20185;-70
2023/12/06 08:48:35;;;;;;;4.03;3.73;;;6.80;99.90;;;;;;5054626;28;20461;-70
2023/12/06 08:51:02;;;;;;;5.90;4.77;;;6.70;99.90;;;;;;5054504;28;20411;-70
2023/12/06 08:53:28;;;;;;;5.90;5.40;;;6.60;99.90;;;;;;5053900;28;20462;-70
2023/12/06 08:55:54;;;;;;;6.00;5.50;;;6.50;99.90;;;;;;5046148;28;20199;-70
2023/12/06 08:58:20;;;;;;;6.50;5.90;;;6.30;99.90;;;;;;5034441;28;20987;-71
2023/12/06 09:00:46;;;;;;;7.27;6.57;;;6.20;99.90;;;;;;5034612;28;20402;-74
2023/12/06 09:03:11;;;;;;;6.30;5.70;;;6.10;99.90;;;;;;5034484;28;20203;-72
2023/12/06 09:05:38;;;;;;;7.20;6.50;;;6.20;99.90;;;;;;5040014;28;20594;-70
2023/12/06 09:08:04;;;;;;;8.53;7.40;;;6.20;99.90;;;;;;5054249;28;20164;-72
2023/12/06 09:10:30;;;;;;;8.70;7.80;;;6.00;99.90;;;;;;5054186;28;20414;-71
2023/12/06 09:12:56;;;;;;;8.70;7.80;;;5.90;99.90;;;;;;5054090;28;20829;-72
2023/12/06 09:15:22;;;;;;;9.20;8.27;;;6.00;99.90;;;;;;5050316;28;20191;-71
2023/12/06 09:17:47;;;;;;;10.00;9.00;;;6.00;99.90;;;;;;5034026;28;20690;-70
2023/12/06 09:20:13;;;;;;;10.70;9.60;;;6.00;99.90;;;;;;5034298;28;20654;-71
2023/12/06 09:22:39;;;;;;;9.43;8.53;;;6.00;99.90;;;;;;5034185;28;20168;-70
2023/12/06 09:25:05;;;;;;;9.17;8.37;;;6.00;99.90;;;;;;5034858;28;20497;-71
2023/12/06 09:27:32;;;;;;;10.53;9.43;;;5.90;99.90;;;;;;5053785;28;20167;-71
2023/12/06 09:29:57;;;;;;;10.93;9.20;;;5.90;99.90;;;;;;5053734;28;20405;-70
2023/12/06 09:32:26;;;;;;;9.53;8.63;;;6.00;99.90;;;;;;5053817;28;20966;-70
2023/12/06 09:34:52;;;;;;;9.40;8.50;;;5.90;99.90;;;;;;5053761;28;20183;-70
2023/12/06 09:37:18;;;;;;;8.80;8.00;;;5.80;99.90;;;;;;5034619;28;20410;-74
2023/12/06 09:39:44;;;;;;;11.53;10.17;;;5.90;99.90;;;;;;5033741;28;20993;-74
2023/12/06 09:42:10;;;;;;;10.80;9.80;;;5.80;99.90;;;;;;5033593;28;20935;-74
2023/12/06 09:44:41;;;;;;;10.03;9.13;;;5.90;99.90;;;;;;5033689;28;20330;-71
2023/12/06 09:47:07;;;;;;;10.50;9.50;;;5.90;99.90;;;;;;5050978;28;20925;-70
2023/12/06 09:49:33;;;;;;;9.80;8.90;;;6.00;99.90;;;;;;5053522;28;20422;-70
2023/12/06 09:52:19;;;;;;;11.60;10.50;;;6.00;99.90;;;;;;5053136;28;20192;-72
2023/12/06 09:57:13;;;;;;;9.37;8.47;;;5.90;99.90;;;;;;5128021;22;20470;-71
2023/12/06 09:59:40;;;;;;;10.30;9.40;;;5.90;99.90;;;;;;5113880;28;20202;-74
2023/12/06 10:02:05;;;;;;;10.53;9.43;;;5.80;99.90;;;;;;5114459;27;20406;-73
2023/12/06 10:04:31;;;;;;;11.80;10.70;;;5.90;99.90;;;;;;5113246;28;20407;-71
2023/12/06 10:06:57;;;;;;;11.50;10.30;;;5.90;99.90;;;;;;5113898;28;20204;-69
2023/12/06 10:09:23;;;;;;;9.80;8.80;;;5.90;99.90;;;;;;5114180;28;20210;-71
2023/12/06 10:11:48;;;;;;;10.30;9.30;;;5.80;99.90;;;;;;5114404;28;20474;-72
2023/12/06 10:14:19;;;;;;;12.63;10.03;;;6.00;99.90;;;;;;5114590;28;20301;-71
2023/12/06 10:16:46;;;;;;;10.40;9.40;;;6.10;99.90;;;;;;5114552;28;20848;-71
2023/12/06 10:19:19;;;;;;;9.60;8.70;;;6.20;99.90;;;;;;5114669;28;20398;-71
2023/12/06 10:21:46;;;;;;;9.70;8.40;;;6.10;99.90;;;;;;5096966;28;20405;-72
2023/12/06 10:24:12;;;;;;;9.70;8.53;;;6.00;99.90;;;;;;5113814;28;20501;-69
2023/12/06 10:26:38;;;;;;;10.67;9.57;;;6.10;99.90;;;;;;5113673;28;20533;-70
2023/12/06 10:29:04;;;;;;;10.90;9.50;;;6.10;99.90;;;;;;5113638;28;20184;-69
2023/12/06 10:31:42;;;;;;;9.67;8.67;;;6.00;99.90;;;;;;5114087;28;20785;-69
2023/12/06 10:34:09;;;;;;;9.20;8.30;;;6.30;99.90;;;;;;5113663;28;20412;-70
2023/12/06 10:36:38;;;;;;;9.07;7.97;;;6.40;99.90;;;;;;5104275;28;20841;-69
2023/12/06 10:39:18;;;;;;;9.50;8.50;;;6.20;99.90;;;;;;5113471;28;20432;-71
2023/12/06 10:41:47;;;;;;;8.77;7.97;;;6.10;99.90;;;;;;5113301;28;20399;-68
2023/12/06 10:44:13;;;;;;;8.30;7.50;;;6.10;99.90;;;;;;5113333;28;20502;-68
2023/12/06 10:46:39;;;;;;;9.10;8.20;;;6.10;99.90;;;;;;5113252;28;20486;-70
2023/12/06 10:49:07;;;;;;;10.57;9.57;;;6.20;99.90;;;;;;5113405;28;20538;-69
2023/12/06 10:51:34;;;;;;;9.53;8.63;;;6.10;99.90;;;;;;5113192;28;20558;-70
2023/12/06 10:54:01;;;;;;;9.37;8.43;;;6.10;99.90;;;;;;5113345;28;20457;-70
2023/12/06 10:56:28;;;;;;;7.50;6.80;;;6.20;99.90;;;;;;5115174;28;20576;-69
2023/12/06 10:58:56;;;;;;;9.70;8.27;;;6.20;99.90;;;;;;5117658;28;20408;-69
2023/12/06 11:01:23;;;;;;;8.90;8.00;;;6.20;99.90;;;;;;5117533;27;20486;-69
2023/12/06 11:03:50;;;;;;;8.67;7.57;;;6.20;99.90;;;;;;5117177;28;20770;-69
2023/12/06 11:06:31;;;;;;;8.33;7.53;;;6.00;99.90;;;;;;5117146;28;20434;-69
2023/12/06 11:09:13;;;;;;;9.47;8.57;;;6.10;99.90;;;;;;5117474;28;20416;-69
2023/12/06 11:12:14;;;;;;;8.00;7.17;;;6.00;99.90;;;;;;5116972;28;20431;-69
2023/12/06 11:14:45;;;;;;;8.17;7.37;;;6.00;99.90;;;;;;5117294;28;20386;-69
2023/12/06 11:17:28;;;;;;;7.93;7.13;;;6.20;99.90;;;;;;5116772;28;20775;-70
2023/12/06 11:19:54;;;;;;;8.07;7.30;;;6.20;99.90;;;;;;5116762;28;20398;-69
2023/12/06 11:22:23;;;;;;;8.63;7.73;;;6.20;99.90;;;;;;5117080;28;20910;-69
2023/12/06 11:24:49;;;;;;;8.10;7.40;;;6.30;99.90;;;;;;5117202;28;20428;-70
2023/12/06 11:27:15;;;;;;;8.33;7.47;;;6.20;99.90;;;;;;5116757;28;20405;-69
2023/12/06 11:29:42;;;;;;;8.63;7.83;;;6.20;99.90;;;;;;5116440;28;20398;-70
2023/12/06 11:32:13;;;;;;;9.87;8.00;;;6.30;99.90;;;;;;5116693;28;20659;-69
2023/12/06 11:34:40;;;;;;;9.67;8.77;;;6.40;99.90;;;;;;5116740;28;20380;-70
2023/12/06 11:37:14;;;;;;;7.87;6.93;;;6.40;99.90;;;;;;5116255;28;20431;-71
2023/12/06 11:39:41;;;;;;;8.80;7.27;;;6.40;99.90;;;;;;5116564;28;20442;-71
2023/12/06 11:42:08;;;;;;;11.00;7.90;;;6.30;99.90;;;;;;5116593;28;20404;-73
2023/12/06 11:44:34;;;;;;;8.23;7.13;;;6.20;99.90;;;;;;5116464;28;20839;-71
2023/12/06 11:47:04;;;;;;;8.60;7.70;;;6.20;99.90;;;;;;5099840;28;20460;-72
2023/12/06 11:49:30;;;;;;;9.53;8.63;;;6.20;99.90;;;;;;5096331;28;20151;-72
2023/12/06 11:52:00;;;;;;;8.60;7.70;;;6.10;99.90;;;;;;5096309;28;20451;-70
2023/12/06 11:54:26;;;;;;;8.20;7.50;;;6.20;99.90;;;;;;5096237;28;20162;-72
2023/12/06 11:56:52;;;;;;;7.97;7.27;;;6.10;99.90;;;;;;5109936;28;20806;-72
2023/12/06 11:59:18;;;;;;;9.30;8.20;;;6.10;99.90;;;;;;5116555;28;20405;-70
2023/12/06 12:01:45;;;;;;;8.27;7.47;;;6.10;99.90;;;;;;5116357;28;20172;-71
2023/12/06 12:04:11;;;;;;;7.73;6.93;;;6.00;99.90;;;;;;5114916;28;20439;-71
2023/12/06 12:06:37;;;;;;;7.87;7.17;;;6.00;99.90;;;;;;5115451;28;20479;-71
2023/12/06 12:09:03;;;;;;;7.90;7.10;;;6.10;99.90;;;;;;5115854;28;20189;-71
2023/12/06 12:11:32;;;;;;;10.17;8.50;;;6.10;99.90;;;;;;5115388;28;20205;-70
2023/12/06 12:13:58;;;;;;;7.93;7.23;;;6.10;99.90;;;;;;5116212;28;20440;-69
2023/12/06 12:16:24;;;;;;;9.00;8.20;;;6.30;99.90;;;;;;5115911;28;20417;-71
2023/12/06 12:18:49;;;;;;;8.67;7.77;;;6.30;99.90;;;;;;5115479;28;20751;-71
2023/12/06 12:21:19;;;;;;;7.90;7.20;;;6.20;99.90;;;;;;5115496;28;20223;-68
2023/12/06 12:23:48;;;;;;;8.77;7.90;;;6.20;99.90;;;;;;5115638;28;20708;-72
2023/12/06 12:26:15;;;;;;;8.40;7.60;;;6.30;99.90;;;;;;5115826;28;20420;-72
2023/12/06 12:28:41;;;;;;;8.37;7.53;;;6.30;99.90;;;;;;5114618;28;20420;-73
2023/12/06 12:31:11;;;;;;;8.77;7.97;;;6.40;99.90;;;;;;5115670;27;20397;-71
2023/12/06 12:33:36;;;;;;;7.80;7.00;;;6.30;99.90;;;;;;5115414;28;20412;-71
2023/12/06 12:36:03;;;;;;;9.73;8.17;;;6.20;99.90;;;;;;5115447;28;20776;-72
2023/12/06 12:38:29;;;;;;;9.43;8.50;;;6.30;99.90;;;;;;5115676;28;20217;-75
2023/12/06 12:40:55;;;;;;;10.17;9.17;;;6.50;99.90;;;;;;5097204;28;21006;-73
2023/12/06 12:43:21;;;;;;;9.03;8.20;;;6.60;99.90;;;;;;5114997;28;20401;-69
2023/12/06 12:45:46;;;;;;;8.70;7.80;;;6.50;99.90;;;;;;5115004;28;20498;-68
2023/12/06 12:48:14;;;;;;;9.67;8.20;;;6.60;99.90;;;;;;5115273;28;20167;-72
2023/12/06 12:50:40;;;;;;;9.93;8.57;;;6.60;99.90;;;;;;5115149;28;20165;-72
2023/12/06 12:53:06;;;;;;;8.00;7.20;;;6.70;99.90;;;;;;5115173;28;20447;-72
2023/12/06 12:55:31;;;;;;;8.20;7.10;;;6.50;99.90;;;;;;5114808;28;20209;-71